Fort Denaud, Florida
Current Conditions -  °F | °C
As of 8:53 AM on Monday 26 Jan 2015 (Local Time) from KRSW Reporting Station
Light Rain Light Rain  
Wind Chill: 62°   Ceiling: 5500
Heat Index: 62°   Visibility: 4mi
Dew Point: 60°   Wind: 5mph
Humidity: 93%   Direction: 300°WNW
Pressure: 29.95"   Gusts: NA
Location:  26.6279°N, 81.3332°W
Report Text: KRSW 261353Z 30004KT 4SM -RA BR FEW012 BKN055 OVC100 17/16 A2995 RMK AO2 RAB07 SLP138 P0008 T01670156
Loading
Personal Weather Stations






























Interactive Weather Map New forecast layout! Learn more

10-Day Weather Forecast

Advertisements
Track Severe Weather on mobile